sensor_id;sensor_type;location;lat;lon;timestamp;pressure;altitude;pressure_sealevel;temperature;humidity
43707;BME280;61348;53.392;-6.248;2023-03-30T00:00:45;98788.88;;;10.79;87.79
43707;BME280;61348;53.392;-6.248;2023-03-30T00:03:12;98789.66;;;10.76;88.17
43707;BME280;61348;53.392;-6.248;2023-03-30T00:05:39;98789.28;;;10.74;88.45
43707;BME280;61348;53.392;-6.248;2023-03-30T00:08:08;98794.00;;;10.73;88.62
43707;BME280;61348;53.392;-6.248;2023-03-30T00:10:35;98803.09;;;10.74;88.83
43707;BME280;61348;53.392;-6.248;2023-03-30T00:13:04;98803.88;;;10.71;88.99
43707;BME280;61348;53.392;-6.248;2023-03-30T00:15:31;98799.13;;;10.68;89.29
43707;BME280;61348;53.392;-6.248;2023-03-30T00:17:57;98803.88;;;10.67;89.51
43707;BME280;61348;53.392;-6.248;2023-03-30T00:20:24;98796.78;;;10.66;89.68
43707;BME280;61348;53.392;-6.248;2023-03-30T00:22:51;98806.28;;;10.69;89.99
43707;BME280;61348;53.392;-6.248;2023-03-30T00:25:18;98802.69;;;10.68;90.30
43707;BME280;61348;53.392;-6.248;2023-03-30T00:27:45;98800.34;;;10.67;90.28
43707;BME280;61348;53.392;-6.248;2023-03-30T00:30:14;98808.66;;;10.67;90.70
43707;BME280;61348;53.392;-6.248;2023-03-30T00:32:42;98809.00;;;10.62;90.95
43707;BME280;61348;53.392;-6.248;2023-03-30T00:35:10;98814.16;;;10.60;91.17
43707;BME280;61348;53.392;-6.248;2023-03-30T00:37:38;98811.78;;;10.58;91.36
43707;BME280;61348;53.392;-6.248;2023-03-30T00:40:07;98818.91;;;10.56;91.71
43707;BME280;61348;53.392;-6.248;2023-03-30T00:42:35;98807.03;;;10.55;91.91
43707;BME280;61348;53.392;-6.248;2023-03-30T00:45:26;98799.13;;;10.54;92.17
43707;BME280;61348;53.392;-6.248;2023-03-30T00:47:59;98811.75;;;10.51;92.17
43707;BME280;61348;53.392;-6.248;2023-03-30T00:53:10;98807.00;;;10.52;92.43
43707;BME280;61348;53.392;-6.248;2023-03-30T00:55:39;98801.50;;;10.48;92.99
43707;BME280;61348;53.392;-6.248;2023-03-30T00:58:07;98800.69;;;10.48;92.98
43707;BME280;61348;53.392;-6.248;2023-03-30T01:00:37;98811.75;;;10.48;93.07
43707;BME280;61348;53.392;-6.248;2023-03-30T01:05:54;98813.31;;;10.49;93.59
43707;BME280;61348;53.392;-6.248;2023-03-30T01:08:23;98817.66;;;10.46;93.48
43707;BME280;61348;53.392;-6.248;2023-03-30T01:10:52;98807.00;;;10.45;93.85
43707;BME280;61348;53.392;-6.248;2023-03-30T01:13:19;98808.59;;;10.46;94.15
43707;BME280;61348;53.392;-6.248;2023-03-30T01:22:09;98817.25;;;10.40;94.58
43707;BME280;61348;53.392;-6.248;2023-03-30T01:40:53;98836.59;;;10.33;95.39
43707;BME280;61348;53.392;-6.248;2023-03-30T01:43:33;98835.81;;;10.29;95.48
43707;BME280;61348;53.392;-6.248;2023-03-30T01:46:17;98838.94;;;10.28;95.42
43707;BME280;61348;53.392;-6.248;2023-03-30T01:49:14;98826.69;;;10.25;95.59
43707;BME280;61348;53.392;-6.248;2023-03-30T01:54:56;98836.53;;;10.19;95.78
43707;BME280;61348;53.392;-6.248;2023-03-30T01:57:43;98832.19;;;10.18;95.87
43707;BME280;61348;53.392;-6.248;2023-03-30T02:00:13;98825.84;;;10.14;96.03
43707;BME280;61348;53.392;-6.248;2023-03-30T02:02:53;98840.41;;;10.11;96.35
43707;BME280;61348;53.392;-6.248;2023-03-30T02:05:25;98840.78;;;10.06;95.84
43707;BME280;61348;53.392;-6.248;2023-03-30T02:07:57;98844.75;;;10.05;95.82
43707;BME280;61348;53.392;-6.248;2023-03-30T02:10:31;98834.47;;;10.02;96.00
43707;BME280;61348;53.392;-6.248;2023-03-30T02:12:59;98842.38;;;10.00;96.21
43707;BME280;61348;53.392;-6.248;2023-03-30T02:15:32;98843.50;;;9.96;96.37
43707;BME280;61348;53.392;-6.248;2023-03-30T02:17:59;98830.84;;;9.91;96.34
43707;BME280;61348;53.392;-6.248;2023-03-30T02:20:26;98832.03;;;9.90;96.26
43707;BME280;61348;53.392;-6.248;2023-03-30T02:22:54;98830.06;;;9.87;96.32
43707;BME280;61348;53.392;-6.248;2023-03-30T02:25:22;98835.16;;;9.85;96.28
43707;BME280;61348;53.392;-6.248;2023-03-30T02:27:50;98829.63;;;9.82;96.26
43707;BME280;61348;53.392;-6.248;2023-03-30T02:30:17;98830.00;;;9.80;96.36
43707;BME280;61348;53.392;-6.248;2023-03-30T02:32:55;98830.38;;;9.75;96.37
43707;BME280;61348;53.392;-6.248;2023-03-30T02:40:58;98833.47;;;9.63;96.34
43707;BME280;61348;53.392;-6.248;2023-03-30T02:43:50;98834.22;;;9.60;96.47
43707;BME280;61348;53.392;-6.248;2023-03-30T02:55:06;98828.22;;;9.47;96.44
43707;BME280;61348;53.392;-6.248;2023-03-30T02:57:36;98828.19;;;9.44;96.41
43707;BME280;61348;53.392;-6.248;2023-03-30T03:00:13;98833.69;;;9.40;96.44
43707;BME280;61348;53.392;-6.248;2023-03-30T03:03:00;98839.97;;;9.37;96.57
43707;BME280;61348;53.392;-6.248;2023-03-30T03:05:31;98834.03;;;9.35;96.57
43707;BME280;61348;53.392;-6.248;2023-03-30T03:07:58;98833.63;;;9.33;96.52
43707;BME280;61348;53.392;-6.248;2023-03-30T03:10:24;98834.03;;;9.32;96.44
43707;BME280;61348;53.392;-6.248;2023-03-30T03:12:51;98834.78;;;9.29;96.48
43707;BME280;61348;53.392;-6.248;2023-03-30T03:15:18;98824.50;;;9.26;96.44
43707;BME280;61348;53.392;-6.248;2023-03-30T03:17:45;98835.16;;;9.24;96.39
43707;BME280;61348;53.392;-6.248;2023-03-30T03:20:12;98823.28;;;9.19;96.62
43707;BME280;61348;53.392;-6.248;2023-03-30T03:22:39;98810.22;;;9.16;96.61
43707;BME280;61348;53.392;-6.248;2023-03-30T03:25:06;98815.34;;;9.14;96.73
43707;BME280;61348;53.392;-6.248;2023-03-30T03:27:33;98807.81;;;9.11;96.72
43707;BME280;61348;53.392;-6.248;2023-03-30T03:30:00;98821.22;;;9.09;96.83
43707;BME280;61348;53.392;-6.248;2023-03-30T03:32:27;98822.78;;;9.07;96.58
43707;BME280;61348;53.392;-6.248;2023-03-30T03:34:54;98829.06;;;9.04;96.85
43707;BME280;61348;53.392;-6.248;2023-03-30T03:37:20;98826.69;;;9.02;96.76
43707;BME280;61348;53.392;-6.248;2023-03-30T03:39:47;98817.56;;;8.98;96.92
43707;BME280;61348;53.392;-6.248;2023-03-30T03:42:14;98815.56;;;8.95;96.98
43707;BME280;61348;53.392;-6.248;2023-03-30T03:44:41;98817.13;;;8.93;96.98
43707;BME280;61348;53.392;-6.248;2023-03-30T03:47:07;98810.81;;;8.92;97.18
43707;BME280;61348;53.392;-6.248;2023-03-30T03:49:34;98817.53;;;8.91;97.06
43707;BME280;61348;53.392;-6.248;2023-03-30T03:52:01;98817.13;;;8.89;96.97
43707;BME280;61348;53.392;-6.248;2023-03-30T03:54:28;98813.16;;;8.87;97.17
43707;BME280;61348;53.392;-6.248;2023-03-30T03:56:55;98816.28;;;8.85;97.23
43707;BME280;61348;53.392;-6.248;2023-03-30T03:59:22;98819.44;;;8.84;97.39
43707;BME280;61348;53.392;-6.248;2023-03-30T04:01:49;98813.91;;;8.84;97.20
43707;BME280;61348;53.392;-6.248;2023-03-30T04:04:15;98813.91;;;8.84;97.39
43707;BME280;61348;53.392;-6.248;2023-03-30T04:06:43;98815.88;;;8.83;97.34
43707;BME280;61348;53.392;-6.248;2023-03-30T04:09:10;98809.94;;;8.81;97.24
43707;BME280;61348;53.392;-6.248;2023-03-30T04:11:37;98812.28;;;8.79;97.46
43707;BME280;61348;53.392;-6.248;2023-03-30T04:14:04;98810.72;;;8.78;97.55
43707;BME280;61348;53.392;-6.248;2023-03-30T04:16:31;98810.72;;;8.78;97.58
43707;BME280;61348;53.392;-6.248;2023-03-30T04:18:58;98816.22;;;8.78;97.55
43707;BME280;61348;53.392;-6.248;2023-03-30T04:21:25;98811.88;;;8.77;97.48
43707;BME280;61348;53.392;-6.248;2023-03-30T04:23:55;98820.09;;;8.74;97.44
43707;BME280;61348;53.392;-6.248;2023-03-30T04:26:22;98812.22;;;8.72;97.63
43707;BME280;61348;53.392;-6.248;2023-03-30T04:28:48;98814.97;;;8.72;97.91
43707;BME280;61348;53.392;-6.248;2023-03-30T04:31:19;98815.38;;;8.71;97.74
43707;BME280;61348;53.392;-6.248;2023-03-30T04:33:48;98803.16;;;8.72;97.85
43707;BME280;61348;53.392;-6.248;2023-03-30T04:36:19;98809.06;;;8.70;97.70
43707;BME280;61348;53.392;-6.248;2023-03-30T04:38:46;98814.53;;;8.67;97.70
43707;BME280;61348;53.392;-6.248;2023-03-30T04:41:28;98807.34;;;8.58;97.66
43707;BME280;61348;53.392;-6.248;2023-03-30T04:43:55;98813.63;;;8.55;97.92
43707;BME280;61348;53.392;-6.248;2023-03-30T04:46:22;98816.38;;;8.52;97.95
43707;BME280;61348;53.392;-6.248;2023-03-30T04:48:48;98808.84;;;8.49;98.10
43707;BME280;61348;53.392;-6.248;2023-03-30T04:51:15;98808.78;;;8.45;98.19
43707;BME280;61348;53.392;-6.248;2023-03-30T04:53:42;98806.78;;;8.42;98.33
43707;BME280;61348;53.392;-6.248;2023-03-30T04:56:08;98808.34;;;8.40;98.25
43707;BME280;61348;53.392;-6.248;2023-03-30T04:58:36;98811.47;;;8.38;98.56
43707;BME280;61348;53.392;-6.248;2023-03-30T05:01:03;98804.75;;;8.36;98.56
43707;BME280;61348;53.392;-6.248;2023-03-30T05:03:30;98803.16;;;8.35;98.64
43707;BME280;61348;53.392;-6.248;2023-03-30T05:05:57;98800.00;;;8.33;98.69
43707;BME280;61348;53.392;-6.248;2023-03-30T05:08:24;98806.25;;;8.30;98.59
43707;BME280;61348;53.392;-6.248;2023-03-30T05:10:51;98807.00;;;8.27;98.61
43707;BME280;61348;53.392;-6.248;2023-03-30T05:13:18;98809.31;;;8.25;98.64
43707;BME280;61348;53.392;-6.248;2023-03-30T05:15:44;98800.22;;;8.21;98.68
43707;BME280;61348;53.392;-6.248;2023-03-30T05:18:17;98803.75;;;8.21;98.86
43707;BME280;61348;53.392;-6.248;2023-03-30T05:20:44;98807.72;;;8.20;99.03
43707;BME280;61348;53.392;-6.248;2023-03-30T05:23:11;98816.34;;;8.19;98.93
43707;BME280;61348;53.392;-6.248;2023-03-30T05:25:41;98811.56;;;8.12;98.86
43707;BME280;61348;53.392;-6.248;2023-03-30T05:28:09;98823.28;;;8.06;99.08
43707;BME280;61348;53.392;-6.248;2023-03-30T05:30:36;98817.72;;;8.02;99.18
43707;BME280;61348;53.392;-6.248;2023-03-30T05:33:03;98815.72;;;7.99;99.06
43707;BME280;61348;53.392;-6.248;2023-03-30T05:35:30;98826.69;;;7.95;99.17
43707;BME280;61348;53.392;-6.248;2023-03-30T05:37:57;98820.03;;;7.96;99.24
43707;BME280;61348;53.392;-6.248;2023-03-30T05:40:24;98823.94;;;7.95;99.28
43707;BME280;61348;53.392;-6.248;2023-03-30T05:42:50;98821.97;;;7.96;99.13
43707;BME280;61348;53.392;-6.248;2023-03-30T05:45:17;98820.03;;;7.96;99.29
43707;BME280;61348;53.392;-6.248;2023-03-30T05:47:44;98827.97;;;8.02;99.31
43707;BME280;61348;53.392;-6.248;2023-03-30T05:50:11;98826.78;;;8.03;98.96
43707;BME280;61348;53.392;-6.248;2023-03-30T05:52:38;98820.84;;;8.01;98.90
43707;BME280;61348;53.392;-6.248;2023-03-30T05:55:04;98824.72;;;7.96;98.70
43707;BME280;61348;53.392;-6.248;2023-03-30T05:57:32;98831.78;;;7.93;98.86
43707;BME280;61348;53.392;-6.248;2023-03-30T05:59:59;98840.78;;;7.90;99.02
43707;BME280;61348;53.392;-6.248;2023-03-30T06:02:26;98846.72;;;7.92;99.31
43707;BME280;61348;53.392;-6.248;2023-03-30T06:04:52;98841.22;;;7.92;99.30
43707;BME280;61348;53.392;-6.248;2023-03-30T06:07:19;98846.31;;;7.90;99.24
43707;BME280;61348;53.392;-6.248;2023-03-30T06:09:46;98845.09;;;7.88;99.08
43707;BME280;61348;53.392;-6.248;2023-03-30T06:12:13;98842.69;;;7.86;99.33
43707;BME280;61348;53.392;-6.248;2023-03-30T06:14:40;98832.06;;;7.85;99.46
43707;BME280;61348;53.392;-6.248;2023-03-30T06:17:06;98832.44;;;7.83;99.33
43707;BME280;61348;53.392;-6.248;2023-03-30T06:19:34;98826.16;;;7.86;99.57
43707;BME280;61348;53.392;-6.248;2023-03-30T06:22:00;98822.31;;;7.91;99.45
43707;BME280;61348;53.392;-6.248;2023-03-30T06:24:27;98837.66;;;7.92;99.35
43707;BME280;61348;53.392;-6.248;2023-03-30T06:26:54;98834.16;;;7.95;99.38
43707;BME280;61348;53.392;-6.248;2023-03-30T06:29:21;98836.97;;;7.98;99.50
43707;BME280;61348;53.392;-6.248;2023-03-30T06:31:48;98840.53;;;8.03;99.39
43707;BME280;61348;53.392;-6.248;2023-03-30T06:34:16;98844.97;;;8.07;99.46
43707;BME280;61348;53.392;-6.248;2023-03-30T06:36:45;98853.25;;;8.11;99.49
43707;BME280;61348;53.392;-6.248;2023-03-30T06:39:12;98852.56;;;8.17;99.62
43707;BME280;61348;53.392;-6.248;2023-03-30T06:41:41;98850.28;;;8.26;99.78
43707;BME280;61348;53.392;-6.248;2023-03-30T06:44:07;98851.25;;;8.37;99.78
43707;BME280;61348;53.392;-6.248;2023-03-30T06:46:35;98854.53;;;8.50;99.89
43707;BME280;61348;53.392;-6.248;2023-03-30T06:49:02;98855.84;;;8.63;99.95
43707;BME280;61348;53.392;-6.248;2023-03-30T06:51:29;98856.00;;;8.77;99.59
43707;BME280;61348;53.392;-6.248;2023-03-30T06:53:56;98848.63;;;8.88;99.50
43707;BME280;61348;53.392;-6.248;2023-03-30T06:56:23;98858.19;;;8.98;99.49
43707;BME280;61348;53.392;-6.248;2023-03-30T06:58:49;98865.41;;;9.09;99.76
43707;BME280;61348;53.392;-6.248;2023-03-30T07:01:17;98858.38;;;9.19;99.42
43707;BME280;61348;53.392;-6.248;2023-03-30T07:03:44;98873.41;;;9.25;99.43
43707;BME280;61348;53.392;-6.248;2023-03-30T07:06:11;98863.97;;;9.26;99.34
43707;BME280;61348;53.392;-6.248;2023-03-30T07:08:38;98867.94;;;9.29;99.58
43707;BME280;61348;53.392;-6.248;2023-03-30T07:11:05;98876.22;;;9.29;99.70
43707;BME280;61348;53.392;-6.248;2023-03-30T07:13:33;98877.78;;;9.30;99.75
43707;BME280;61348;53.392;-6.248;2023-03-30T07:16:00;98880.56;;;9.30;99.98
43707;BME280;61348;53.392;-6.248;2023-03-30T07:18:26;98889.28;;;9.32;99.73
43707;BME280;61348;53.392;-6.248;2023-03-30T07:20:56;98887.31;;;9.36;100.00
43707;BME280;61348;53.392;-6.248;2023-03-30T07:23:23;98896.44;;;9.40;100.00
43707;BME280;61348;53.392;-6.248;2023-03-30T07:25:50;98904.38;;;9.48;100.00
43707;BME280;61348;53.392;-6.248;2023-03-30T07:28:18;98901.34;;;9.60;100.00
43707;BME280;61348;53.392;-6.248;2023-03-30T07:30:45;98902.59;;;9.73;100.00
43707;BME280;61348;53.392;-6.248;2023-03-30T07:33:12;98905.03;;;9.82;99.73
43707;BME280;61348;53.392;-6.248;2023-03-30T07:35:44;98903.09;;;9.86;99.50
43707;BME280;61348;53.392;-6.248;2023-03-30T07:38:12;98897.19;;;9.91;99.61
43707;BME280;61348;53.392;-6.248;2023-03-30T07:40:40;98907.09;;;9.96;99.80
43707;BME280;61348;53.392;-6.248;2023-03-30T07:43:07;98907.88;;;9.96;99.67
43707;BME280;61348;53.392;-6.248;2023-03-30T07:45:36;98913.03;;;10.01;99.70
43707;BME280;61348;53.392;-6.248;2023-03-30T07:48:03;98919.00;;;10.03;99.77
43707;BME280;61348;53.392;-6.248;2023-03-30T07:50:30;98919.81;;;10.07;99.67
43707;BME280;61348;53.392;-6.248;2023-03-30T07:52:57;98915.88;;;10.12;99.41
43707;BME280;61348;53.392;-6.248;2023-03-30T07:55:24;98917.53;;;10.16;99.35
43707;BME280;61348;53.392;-6.248;2023-03-30T07:57:51;98927.78;;;10.19;99.17
43707;BME280;61348;53.392;-6.248;2023-03-30T08:00:18;98935.75;;;10.24;99.13
43707;BME280;61348;53.392;-6.248;2023-03-30T08:02:47;98931.78;;;10.25;99.12
43707;BME280;61348;53.392;-6.248;2023-03-30T08:05:14;98942.88;;;10.29;99.09
43707;BME280;61348;53.392;-6.248;2023-03-30T08:07:43;98939.75;;;10.34;99.23
43707;BME280;61348;53.392;-6.248;2023-03-30T08:10:11;98940.53;;;10.38;99.04
43707;BME280;61348;53.392;-6.248;2023-03-30T08:12:38;98951.63;;;10.42;98.90
43707;BME280;61348;53.392;-6.248;2023-03-30T08:15:06;98938.19;;;10.44;98.79
43707;BME280;61348;53.392;-6.248;2023-03-30T08:17:33;98947.69;;;10.46;98.58
43707;BME280;61348;53.392;-6.248;2023-03-30T08:20:00;98945.34;;;10.48;98.59
43707;BME280;61348;53.392;-6.248;2023-03-30T08:22:27;98948.53;;;10.50;98.37
43707;BME280;61348;53.392;-6.248;2023-03-30T08:24:53;98944.19;;;10.53;98.32
43707;BME280;61348;53.392;-6.248;2023-03-30T08:27:20;98945.41;;;10.59;98.33
43707;BME280;61348;53.392;-6.248;2023-03-30T08:29:47;98945.41;;;10.66;98.19
43707;BME280;61348;53.392;-6.248;2023-03-30T08:32:16;98940.72;;;10.77;98.08
43707;BME280;61348;53.392;-6.248;2023-03-30T08:34:43;98944.69;;;10.83;97.78
43707;BME280;61348;53.392;-6.248;2023-03-30T08:37:10;98953.41;;;10.85;97.87
43707;BME280;61348;53.392;-6.248;2023-03-30T08:39:37;98959.75;;;10.92;98.27
43707;BME280;61348;53.392;-6.248;2023-03-30T08:42:12;98959.81;;;11.10;98.35
43707;BME280;61348;53.392;-6.248;2023-03-30T08:44:43;98966.16;;;11.28;98.73
43707;BME280;61348;53.392;-6.248;2023-03-30T08:47:15;98944.81;;;11.50;98.97
43707;BME280;61348;53.392;-6.248;2023-03-30T08:49:51;98946.81;;;11.63;98.57
43707;BME280;61348;53.392;-6.248;2023-03-30T08:52:22;98951.22;;;11.72;98.40
43707;BME280;61348;53.392;-6.248;2023-03-30T08:54:50;98952.78;;;11.80;99.24
43707;BME280;61348;53.392;-6.248;2023-03-30T08:57:37;98959.94;;;11.91;99.61
43707;BME280;61348;53.392;-6.248;2023-03-30T09:00:18;98964.66;;;12.05;99.83
43707;BME280;61348;53.392;-6.248;2023-03-30T09:02:50;98972.94;;;12.30;100.00
43707;BME280;61348;53.392;-6.248;2023-03-30T09:05:29;98968.81;;;12.76;100.00
43707;BME280;61348;53.392;-6.248;2023-03-30T09:08:21;98978.19;;;13.18;100.00
43707;BME280;61348;53.392;-6.248;2023-03-30T09:10:59;98974.22;;;13.77;98.92
43707;BME280;61348;53.392;-6.248;2023-03-30T09:13:32;98972.56;;;14.28;97.25
43707;BME280;61348;53.392;-6.248;2023-03-30T09:18:33;98971.88;;;14.17;93.58
43707;BME280;61348;53.392;-6.248;2023-03-30T09:21:03;98963.59;;;14.13;93.77
43707;BME280;61348;53.392;-6.248;2023-03-30T09:23:33;98967.84;;;14.62;92.84
43707;BME280;61348;53.392;-6.248;2023-03-30T09:34:19;98989.25;;;17.18;82.71
43707;BME280;61348;53.392;-6.248;2023-03-30T09:37:11;98990.81;;;16.37;82.25
43707;BME280;61348;53.392;-6.248;2023-03-30T09:39:38;98981.41;;;16.27;81.39
43707;BME280;61348;53.392;-6.248;2023-03-30T09:45:00;98995.72;;;16.53;80.20
43707;BME280;61348;53.392;-6.248;2023-03-30T09:47:34;98996.81;;;16.59;76.78
43707;BME280;61348;53.392;-6.248;2023-03-30T09:50:11;98987.59;;;16.15;77.53
43707;BME280;61348;53.392;-6.248;2023-03-30T09:53:03;98996.91;;;16.94;76.16
43707;BME280;61348;53.392;-6.248;2023-03-30T09:55:33;99001.06;;;17.26;74.52
43707;BME280;61348;53.392;-6.248;2023-03-30T10:00:43;99014.34;;;17.02;72.30
43707;BME280;61348;53.392;-6.248;2023-03-30T10:03:21;99012.25;;;17.06;72.51
43707;BME280;61348;53.392;-6.248;2023-03-30T10:06:06;99006.09;;;17.50;72.20
43707;BME280;61348;53.392;-6.248;2023-03-30T10:08:49;99014.94;;;17.85;69.95
43707;BME280;61348;53.392;-6.248;2023-03-30T10:11:21;99015.56;;;17.01;69.60
43707;BME280;61348;53.392;-6.248;2023-03-30T10:13:58;99017.38;;;16.25;70.77
43707;BME280;61348;53.392;-6.248;2023-03-30T10:16:27;99007.66;;;15.83;71.34
43707;BME280;61348;53.392;-6.248;2023-03-30T10:18:59;99004.22;;;15.99;71.28
43707;BME280;61348;53.392;-6.248;2023-03-30T10:21:35;99021.25;;;15.81;70.90
43707;BME280;61348;53.392;-6.248;2023-03-30T10:24:09;99011.25;;;16.07;71.23
43707;BME280;61348;53.392;-6.248;2023-03-30T10:26:45;99017.28;;;17.15;68.77
43707;BME280;61348;53.392;-6.248;2023-03-30T10:29:18;99015.00;;;17.45;66.78
43707;BME280;61348;53.392;-6.248;2023-03-30T10:32:02;99018.50;;;16.94;67.62
43707;BME280;61348;53.392;-6.248;2023-03-30T10:34:41;98997.44;;;16.23;68.48
43707;BME280;61348;53.392;-6.248;2023-03-30T10:37:12;99013.25;;;15.57;69.44
43707;BME280;61348;53.392;-6.248;2023-03-30T10:39:42;99011.44;;;15.13;70.91
43707;BME280;61348;53.392;-6.248;2023-03-30T10:42:15;99013.31;;;14.89;71.58
43707;BME280;61348;53.392;-6.248;2023-03-30T10:44:54;99013.22;;;14.62;72.04
43707;BME280;61348;53.392;-6.248;2023-03-30T10:47:31;99019.91;;;14.31;72.32
43707;BME280;61348;53.392;-6.248;2023-03-30T10:53:10;99021.03;;;13.89;74.17
43707;BME280;61348;53.392;-6.248;2023-03-30T10:56:02;99007.38;;;14.87;71.65
43707;BME280;61348;53.392;-6.248;2023-03-30T11:01:14;99020.09;;;15.52;70.10
43707;BME280;61348;53.392;-6.248;2023-03-30T11:03:46;99016.09;;;15.53;69.85
43707;BME280;61348;53.392;-6.248;2023-03-30T11:06:21;99012.09;;;15.54;70.20
43707;BME280;61348;53.392;-6.248;2023-03-30T11:08:52;99017.72;;;15.51;70.77
43707;BME280;61348;53.392;-6.248;2023-03-30T11:11:32;99012.63;;;15.46;71.13
43707;BME280;61348;53.392;-6.248;2023-03-30T11:14:02;99013.44;;;15.43;71.66
43707;BME280;61348;53.392;-6.248;2023-03-30T11:16:41;99003.28;;;15.59;71.67
43707;BME280;61348;53.392;-6.248;2023-03-30T11:19:25;99004.44;;;15.62;71.88
43707;BME280;61348;53.392;-6.248;2023-03-30T11:22:14;99015.34;;;15.49;72.38
43707;BME280;61348;53.392;-6.248;2023-03-30T11:24:43;98993.16;;;15.39;72.53
43707;BME280;61348;53.392;-6.248;2023-03-30T11:27:17;98986.94;;;15.58;72.43
43707;BME280;61348;53.392;-6.248;2023-03-30T11:29:52;99008.56;;;15.77;72.55
43707;BME280;61348;53.392;-6.248;2023-03-30T11:32:42;98991.34;;;15.82;72.57
43707;BME280;61348;53.392;-6.248;2023-03-30T11:40:28;98996.31;;;15.94;71.96
43707;BME280;61348;53.392;-6.248;2023-03-30T11:42:57;98996.56;;;15.80;71.95
43707;BME280;61348;53.392;-6.248;2023-03-30T11:50:58;98995.47;;;15.44;71.20
43707;BME280;61348;53.392;-6.248;2023-03-30T11:53:59;98984.44;;;15.37;70.82
43707;BME280;61348;53.392;-6.248;2023-03-30T12:02:29;98975.59;;;15.42;70.28
43707;BME280;61348;53.392;-6.248;2023-03-30T12:05:09;98975.94;;;15.47;70.31
43707;BME280;61348;53.392;-6.248;2023-03-30T12:13:01;98982.94;;;15.86;70.02
43707;BME280;61348;53.392;-6.248;2023-03-30T12:18:18;98973.09;;;15.77;69.49
43707;BME280;61348;53.392;-6.248;2023-03-30T12:21:10;98977.28;;;15.89;69.74
43707;BME280;61348;53.392;-6.248;2023-03-30T12:23:55;98978.50;;;16.11;69.40
43707;BME280;61348;53.392;-6.248;2023-03-30T12:26:28;98978.19;;;16.29;69.10
43707;BME280;61348;53.392;-6.248;2023-03-30T12:29:15;98981.72;;;16.33;68.54
43707;BME280;61348;53.392;-6.248;2023-03-30T12:34:19;98970.75;;;16.22;67.98
43707;BME280;61348;53.392;-6.248;2023-03-30T12:36:48;98965.00;;;16.29;67.46
43707;BME280;61348;53.392;-6.248;2023-03-30T12:39:30;98954.84;;;16.39;67.44
43707;BME280;61348;53.392;-6.248;2023-03-30T12:55:47;98953.72;;;15.67;68.25
43707;BME280;61348;53.392;-6.248;2023-03-30T13:04:17;98939.00;;;15.36;68.37
43707;BME280;61348;53.392;-6.248;2023-03-30T13:07:01;98935.00;;;15.41;68.66
43707;BME280;61348;53.392;-6.248;2023-03-30T13:09:31;98930.31;;;15.61;68.30
43707;BME280;61348;53.392;-6.248;2023-03-30T13:14:38;98931.16;;;15.81;68.03
43707;BME280;61348;53.392;-6.248;2023-03-30T13:24:45;98940.84;;;15.50;68.30
43707;BME280;61348;53.392;-6.248;2023-03-30T13:51:35;98903.66;;;14.01;71.51
43707;BME280;61348;53.392;-6.248;2023-03-30T13:54:07;98900.78;;;14.09;72.00
43707;BME280;61348;53.392;-6.248;2023-03-30T13:56:38;98893.38;;;14.36;72.40
43707;BME280;61348;53.392;-6.248;2023-03-30T13:59:11;98892.50;;;14.76;71.91
43707;BME280;61348;53.392;-6.248;2023-03-30T14:01:40;98887.50;;;15.17;71.83
43707;BME280;61348;53.392;-6.248;2023-03-30T14:04:11;98879.00;;;15.55;71.66
43707;BME280;61348;53.392;-6.248;2023-03-30T14:06:42;98883.31;;;15.82;71.78
43707;BME280;61348;53.392;-6.248;2023-03-30T14:09:22;98875.28;;;16.08;71.98
43707;BME280;61348;53.392;-6.248;2023-03-30T14:12:00;98874.16;;;16.44;72.31
43707;BME280;61348;53.392;-6.248;2023-03-30T14:14:37;98863.19;;;16.73;72.43
43707;BME280;61348;53.392;-6.248;2023-03-30T14:17:20;98866.69;;;16.97;72.26
43707;BME280;61348;53.392;-6.248;2023-03-30T14:20:14;98865.38;;;17.01;71.77
43707;BME280;61348;53.392;-6.248;2023-03-30T14:22:45;98846.91;;;16.88;71.24
43707;BME280;61348;53.392;-6.248;2023-03-30T14:25:26;98843.53;;;16.96;71.66
43707;BME280;61348;53.392;-6.248;2023-03-30T14:27:55;98842.25;;;17.17;71.39
43707;BME280;61348;53.392;-6.248;2023-03-30T14:30:26;98844.00;;;17.43;71.00
43707;BME280;61348;53.392;-6.248;2023-03-30T14:33:07;98828.63;;;17.68;70.07
43707;BME280;61348;53.392;-6.248;2023-03-30T14:35:43;98818.09;;;17.88;69.24
43707;BME280;61348;53.392;-6.248;2023-03-30T14:38:33;98819.31;;;18.03;68.36
43707;BME280;61348;53.392;-6.248;2023-03-30T14:41:19;98817.09;;;18.10;67.39
43707;BME280;61348;53.392;-6.248;2023-03-30T14:43:53;98806.00;;;17.91;66.52
43707;BME280;61348;53.392;-6.248;2023-03-30T14:46:24;98805.13;;;17.94;66.54
43707;BME280;61348;53.392;-6.248;2023-03-30T14:48:53;98798.06;;;18.18;67.22
43707;BME280;61348;53.392;-6.248;2023-03-30T14:51:36;98810.22;;;18.40;65.84
43707;BME280;61348;53.392;-6.248;2023-03-30T14:54:03;98794.78;;;18.48;64.31
43707;BME280;61348;53.392;-6.248;2023-03-30T14:56:31;98787.91;;;18.37;63.73
43707;BME280;61348;53.392;-6.248;2023-03-30T14:58:58;98783.94;;;18.50;63.22
43707;BME280;61348;53.392;-6.248;2023-03-30T15:01:28;98791.09;;;18.51;62.89
43707;BME280;61348;53.392;-6.248;2023-03-30T15:04:02;98779.84;;;18.39;62.35
43707;BME280;61348;53.392;-6.248;2023-03-30T15:06:30;98774.06;;;18.17;61.96
43707;BME280;61348;53.392;-6.248;2023-03-30T15:09:00;98782.72;;;18.22;62.09
43707;BME280;61348;53.392;-6.248;2023-03-30T15:11:28;98774.88;;;18.30;62.12
43707;BME280;61348;53.392;-6.248;2023-03-30T15:14:00;98772.78;;;18.34;61.46
43707;BME280;61348;53.392;-6.248;2023-03-30T15:16:32;98764.00;;;18.32;61.35
43707;BME280;61348;53.392;-6.248;2023-03-30T15:19:05;98763.81;;;18.39;61.22
43707;BME280;61348;53.392;-6.248;2023-03-30T15:21:37;98765.88;;;18.51;60.51
43707;BME280;61348;53.392;-6.248;2023-03-30T15:24:11;98765.34;;;18.69;60.23
43707;BME280;61348;53.392;-6.248;2023-03-30T15:26:44;98765.13;;;18.76;59.42
43707;BME280;61348;53.392;-6.248;2023-03-30T15:29:14;98755.03;;;18.66;58.75
43707;BME280;61348;53.392;-6.248;2023-03-30T15:31:44;98760.78;;;18.34;58.45
43707;BME280;61348;53.392;-6.248;2023-03-30T15:34:15;98747.53;;;18.21;58.35
43707;BME280;61348;53.392;-6.248;2023-03-30T15:36:43;98742.38;;;18.20;58.04
43707;BME280;61348;53.392;-6.248;2023-03-30T15:39:22;98750.00;;;18.32;57.95
43707;BME280;61348;53.392;-6.248;2023-03-30T15:44:22;98738.94;;;18.41;57.80